Share

Atyray, Kazakhstan

2:39 AM AQTT on April 24, 2014 (GMT +0500)
Atyrau (UATG) Elev -72 ft | 47.12 °N, 51.83 °E | Change Station

Current weather conditions updated 9 minutes ago

Clear
Clear
57 °F
Feels Like 57 °F
N
4
Wind Variable Wind from North
Sunrise 6:28 AM
Sunset 8:33 PM
Moon Waning Crescent

Today is forecast to be nearly the same temperature as yesterday. Showers early tonight.

Pressure 29.83 in
Visibility -9999.0 miles
Clouds
Dew Point 19 °F
Humidity 23%
Rainfall 0.00 in
Snow Depth Not available.
UV Not available.
Pollen Not available.
Air Quality Not available.
Flu Activity Not available.
METAR UATG 232130Z 36002MPS CAVOK 14/M07 Q1010 R14/CLRD70 NOSIG RMK QFE759/1013

More Conditions Fewer Conditions

Pressure 29.83 in
Visibility -9999.0 miles
Clouds
Dew Point 19 °F
Humidity 23%
Rainfall 0.00 in
Snow Depth Not available.
UV Not available.
Pollen Not available.
Air Quality Not available.
Flu Activity Not available.
METAR UATG 232130Z 36002MPS CAVOK 14/M07 Q1010 R14/CLRD70 NOSIG RMK QFE759/1013

More Conditions Fewer Conditions

10-Day Weather Forecast

Almanac

Astronomy

Apr. 24, 2014 Rise Set
Actual Time 6:28 AM AQTT 8:33 PM AQTT
Civil Twilight 5:55 AM AQTT 9:06 PM AQTT
Nautical Twilight 5:15 AM AQTT 9:47 PM AQTT
Astronomical Twilight 4:29 AM AQTT 10:32 PM AQTT
Moon 3:46 AM AQTT (4/24) 3:02 PM AQTT (4/24)
Length of Visible Light 15h 10m
Length of Day
14h 04m
Tomorrow will be 3m 7s longer.
Waning Crescent, 32% of the Moon is Illuminated
Apr 23
Waning Crescent
Apr 29
New
May 6
First Quarter
May 14
Full
May 21
Last Quarter

Yesterday's Extremes

Country Highs Country Lows

Community

  • Stunning Sunrise
    Stunning Sunrise
  • spring flowers
    spring flowers
  • Earth Day Spectrum Ove' Blue
    Earth Day Spectrum Ove' Blue
  • BARN B&W
    BARN B&W
  • April Sunset
    April Sunset

WunderPhotos

Upload Photos

1,704,415 photos uploaded!

WunderBlogs® & News

Nearby

Snow Depth

Not available.

Coastal Water Temperatures

Place Temperature
No Stations Reporting

Earthquake Activity

City Distance Mag. Time & Date
No recent earthquake activity has been reported nearby.
Minimum magnitude displayed is 2.5.

Nearby Weather Stations

There are no personal weather stations in this area.

What do you think?

We're not finished. Please let us know what you like, what you don't like, and what you are still missing.